NFFN/NAN METAR and TAF weather

Enter ICAO airport designator
Station Type Date Time Source
NFFN METAR 2022/07/03 14:00 UTC NOAA

NFFN 031400Z 16006KT 9999 FEW030 23/19 Q1013 NOSIG


Station Type Date Time Source
NFFN Decoded METAR 2022/07/03 14:00 UTC NOAA

Nandi, Fiji (NFFN) 17-45S 177-27E 18M
Jul 03, 2022 - 10:00 AM EDT / 2022.07.03 1400 UTC
Wind: from the SSE (160 degrees) at 7 MPH (6 KT):0
Visibility: greater than 7 mile(s):0
Sky conditions: mostly clear
Temperature: 73 F (23 C)
Dew Point: 66 F (19 C)
Relative Humidity: 78%
Pressure (altimeter): 29.91 in. Hg (1013 hPa)
ob: NFFN 031400Z 16006KT 9999 FEW030 23/19 Q1013 NOSIG
cycle: 14

Station Type Date Time Source
NFFN TAF 2022/07/03 12:10 UTC NOAA

TAF NFFN 031105Z 0312/0412 13007KT 9999 FEW030
BECMG 0401/0403 32010KT
BECMG 0405/0407 13005KT

Example: see airport list